Main page

Airports :

Longyearbyen, Longyear,

Svalbard Airport

latitude: Norway, longitude: 78-15N, elevation: 015-28E m

Current weather observation

The report was made 35 minutes ago, at 07:20 UTC
Wind 19 kt from the East/Southeast
Temperature -2°C
Humidity 74%
Pressure 991 hPa
Visibility 10 km or more
Scattered clouds at a height of 3500 ft

METAR: ENSB 300720Z 11019KT 9999 SCT035 M02/M06 Q0991 NOSIG RMK WIND 1400FT 09025KT

Time: 07:55 (07:55 UTC)


Forecast valid from 30 at 06 UTC to 01 at 06 UTC
Wind 20 kt from the East/Southeast
Visibility 10 km or more
Few clouds at a height of 2000 ft
Broken clouds at a height of 4000 ft
from 30 at 09 UTC to 01 at 06 UTC
Wind 30 kt from the East/Southeast with gusts up to 40 kt
Visibility: 3000 m
Broken clouds at a height of 1400 ft
light snow showers, Low drifting snow

TAF: ENSB 3006/0106 12020KT 9999 FEW020 BKN040 TEMPO 3009/0106 11030G40KT 3000 -SHSN DRSN BKN014


Weather observations and forecasts of more than 4000 airports (METAR and TAF reports).

The available stations are represented by yellow and red dots on the map.

Hover mouse over dot to see the name of the station.

Then click to see weather observations and forecasts.

To change the map : click on the green buttons with a black cross to zoom in, on the green button with a dash to zoom out, or on the green arrows for adjacent maps.